Terminal Aerodrome Forecast
Issued by NWS Knoxville/Tri Cities, TN

Home | Current Version | Previous Version | Text Only | Print | Product List | Glossary On
Versions: 1 2 3 4 5 6 7 8 9 10 11 12 13 14 15 16 17 18 19 20 21 22 23 24 25 26 27 28 29 30 31 32
000
FTUS44 KMRX 280804 AAA
TAFCHA
TAF AMD
KCHA 280804Z 2808/2906 17005KT 6SM -RA BR SCT008 OVC090
      TEMPO 2808/2810 4SM -RA BR BKN008 OVC020
     FM281000 17003KT 3SM -RA BR BKN007 OVC015
     FM281600 VRB03KT 2SM -DZ BR OVC007
     FM282000 34005KT 4SM BR OVC010
     FM290000 34005KT 2SM -RA OVC007=

USA.gov is the U.S. government's official web portal to all federal, state and local government web resources and services.